sensor_id;sensor_type;location;lat;lon;timestamp;temperature;humidity
45969;DHT22;31676;40.444;-3.668;2023-03-01T00:01:31;20.80;77.40
45969;DHT22;31676;40.444;-3.668;2023-03-01T00:03:57;20.80;77.40
45969;DHT22;31676;40.444;-3.668;2023-03-01T00:06:24;20.80;77.40
45969;DHT22;31676;40.444;-3.668;2023-03-01T00:08:50;20.80;77.50
45969;DHT22;31676;40.444;-3.668;2023-03-01T00:11:17;20.80;78.10
45969;DHT22;31676;40.444;-3.668;2023-03-01T00:13:43;20.80;77.40
45969;DHT22;31676;40.444;-3.668;2023-03-01T00:16:10;20.80;77.40
45969;DHT22;31676;40.444;-3.668;2023-03-01T00:18:36;20.80;77.50
45969;DHT22;31676;40.444;-3.668;2023-03-01T00:21:02;20.80;77.40
45969;DHT22;31676;40.444;-3.668;2023-03-01T00:23:27;20.80;77.40
45969;DHT22;31676;40.444;-3.668;2023-03-01T00:25:53;20.80;77.40
45969;DHT22;31676;40.444;-3.668;2023-03-01T00:28:20;20.80;77.50
45969;DHT22;31676;40.444;-3.668;2023-03-01T00:30:45;20.80;77.50
45969;DHT22;31676;40.444;-3.668;2023-03-01T00:33:11;20.80;77.50
45969;DHT22;31676;40.444;-3.668;2023-03-01T00:35:37;20.80;77.40
45969;DHT22;31676;40.444;-3.668;2023-03-01T00:38:03;20.80;77.50
45969;DHT22;31676;40.444;-3.668;2023-03-01T00:40:30;20.80;77.50
45969;DHT22;31676;40.444;-3.668;2023-03-01T00:42:55;20.80;77.50
45969;DHT22;31676;40.444;-3.668;2023-03-01T00:45:21;20.80;77.50
45969;DHT22;31676;40.444;-3.668;2023-03-01T00:47:48;20.80;77.50
45969;DHT22;31676;40.444;-3.668;2023-03-01T00:50:13;20.80;77.50
45969;DHT22;31676;40.444;-3.668;2023-03-01T00:52:39;20.80;77.50
45969;DHT22;31676;40.444;-3.668;2023-03-01T00:55:05;20.80;77.50
45969;DHT22;31676;40.444;-3.668;2023-03-01T00:57:31;20.80;77.50
45969;DHT22;31676;40.444;-3.668;2023-03-01T00:59:56;20.80;77.50
45969;DHT22;31676;40.444;-3.668;2023-03-01T01:02:22;20.80;77.50
45969;DHT22;31676;40.444;-3.668;2023-03-01T01:04:48;20.80;77.50
45969;DHT22;31676;40.444;-3.668;2023-03-01T01:07:14;20.80;77.50
45969;DHT22;31676;40.444;-3.668;2023-03-01T01:09:40;20.80;77.50
45969;DHT22;31676;40.444;-3.668;2023-03-01T01:12:06;20.80;77.50
45969;DHT22;31676;40.444;-3.668;2023-03-01T01:14:32;20.70;77.50
45969;DHT22;31676;40.444;-3.668;2023-03-01T01:16:58;20.80;77.50
45969;DHT22;31676;40.444;-3.668;2023-03-01T01:19:24;20.80;77.40
45969;DHT22;31676;40.444;-3.668;2023-03-01T01:21:50;20.80;77.50
45969;DHT22;31676;40.444;-3.668;2023-03-01T01:24:16;20.80;77.50
45969;DHT22;31676;40.444;-3.668;2023-03-01T01:26:42;20.80;77.50
45969;DHT22;31676;40.444;-3.668;2023-03-01T01:29:08;20.80;77.50
45969;DHT22;31676;40.444;-3.668;2023-03-01T01:31:35;20.80;77.50
45969;DHT22;31676;40.444;-3.668;2023-03-01T01:34:01;20.80;77.50
45969;DHT22;31676;40.444;-3.668;2023-03-01T01:36:27;20.80;77.50
45969;DHT22;31676;40.444;-3.668;2023-03-01T01:38:53;20.80;77.50
45969;DHT22;31676;40.444;-3.668;2023-03-01T01:41:19;20.80;78.10
45969;DHT22;31676;40.444;-3.668;2023-03-01T01:43:49;20.80;77.50
45969;DHT22;31676;40.444;-3.668;2023-03-01T01:48:45;20.70;77.50
45969;DHT22;31676;40.444;-3.668;2023-03-01T01:51:31;20.70;77.50
45969;DHT22;31676;40.444;-3.668;2023-03-01T01:54:05;20.80;77.50
45969;DHT22;31676;40.444;-3.668;2023-03-01T01:56:33;20.80;77.50
45969;DHT22;31676;40.444;-3.668;2023-03-01T02:01:33;20.80;77.50
45969;DHT22;31676;40.444;-3.668;2023-03-01T02:03:58;20.70;77.50
45969;DHT22;31676;40.444;-3.668;2023-03-01T02:06:28;20.70;77.50
45969;DHT22;31676;40.444;-3.668;2023-03-01T02:08:57;20.70;77.50
45969;DHT22;31676;40.444;-3.668;2023-03-01T02:11:24;20.70;77.50
45969;DHT22;31676;40.444;-3.668;2023-03-01T02:13:51;20.70;77.50
45969;DHT22;31676;40.444;-3.668;2023-03-01T02:16:17;20.70;77.50
45969;DHT22;31676;40.444;-3.668;2023-03-01T02:18:43;20.70;77.50
45969;DHT22;31676;40.444;-3.668;2023-03-01T02:23:54;20.70;77.50
45969;DHT22;31676;40.444;-3.668;2023-03-01T02:26:30;20.70;77.50
45969;DHT22;31676;40.444;-3.668;2023-03-01T02:28:59;20.70;77.50
45969;DHT22;31676;40.444;-3.668;2023-03-01T02:31:24;20.70;77.50
45969;DHT22;31676;40.444;-3.668;2023-03-01T02:34:12;20.70;77.50
45969;DHT22;31676;40.444;-3.668;2023-03-01T02:36:46;20.70;77.50
45969;DHT22;31676;40.444;-3.668;2023-03-01T02:39:14;20.70;77.50
45969;DHT22;31676;40.444;-3.668;2023-03-01T02:41:44;20.70;77.50
45969;DHT22;31676;40.444;-3.668;2023-03-01T02:44:11;20.70;77.50
45969;DHT22;31676;40.444;-3.668;2023-03-01T02:46:50;20.70;77.50
45969;DHT22;31676;40.444;-3.668;2023-03-01T02:49:18;20.70;77.50
45969;DHT22;31676;40.444;-3.668;2023-03-01T02:54:25;20.70;77.50
45969;DHT22;31676;40.444;-3.668;2023-03-01T02:56:54;20.70;77.50
45969;DHT22;31676;40.444;-3.668;2023-03-01T02:59:20;20.70;77.50
45969;DHT22;31676;40.444;-3.668;2023-03-01T03:01:47;20.70;77.50
45969;DHT22;31676;40.444;-3.668;2023-03-01T03:04:14;20.70;77.50
45969;DHT22;31676;40.444;-3.668;2023-03-01T03:06:46;20.70;77.50
45969;DHT22;31676;40.444;-3.668;2023-03-01T03:09:13;20.70;77.50
45969;DHT22;31676;40.444;-3.668;2023-03-01T03:11:39;20.70;77.50
45969;DHT22;31676;40.444;-3.668;2023-03-01T03:14:06;20.70;77.50
45969;DHT22;31676;40.444;-3.668;2023-03-01T03:16:45;20.70;77.50
45969;DHT22;31676;40.444;-3.668;2023-03-01T03:19:11;20.70;77.50
45969;DHT22;31676;40.444;-3.668;2023-03-01T03:21:37;20.70;77.50
45969;DHT22;31676;40.444;-3.668;2023-03-01T03:24:02;20.70;77.50
45969;DHT22;31676;40.444;-3.668;2023-03-01T03:26:28;20.70;77.50
45969;DHT22;31676;40.444;-3.668;2023-03-01T03:28:54;20.70;77.50
45969;DHT22;31676;40.444;-3.668;2023-03-01T03:31:20;20.70;77.50
45969;DHT22;31676;40.444;-3.668;2023-03-01T03:33:45;20.60;77.50
45969;DHT22;31676;40.444;-3.668;2023-03-01T03:36:18;20.60;77.50
45969;DHT22;31676;40.444;-3.668;2023-03-01T03:38:44;20.70;77.50
45969;DHT22;31676;40.444;-3.668;2023-03-01T03:41:11;20.60;77.50
45969;DHT22;31676;40.444;-3.668;2023-03-01T03:43:37;20.70;77.50
45969;DHT22;31676;40.444;-3.668;2023-03-01T03:46:04;20.60;77.50
45969;DHT22;31676;40.444;-3.668;2023-03-01T03:48:33;20.60;77.50
45969;DHT22;31676;40.444;-3.668;2023-03-01T03:50:59;20.60;77.50
45969;DHT22;31676;40.444;-3.668;2023-03-01T03:53:26;20.60;77.50
45969;DHT22;31676;40.444;-3.668;2023-03-01T03:55:52;20.60;77.50
45969;DHT22;31676;40.444;-3.668;2023-03-01T03:58:19;20.60;77.50
45969;DHT22;31676;40.444;-3.668;2023-03-01T04:00:46;20.60;77.50
45969;DHT22;31676;40.444;-3.668;2023-03-01T04:03:12;20.60;77.50
45969;DHT22;31676;40.444;-3.668;2023-03-01T04:05:38;20.60;77.50
45969;DHT22;31676;40.444;-3.668;2023-03-01T04:08:04;20.60;77.50
45969;DHT22;31676;40.444;-3.668;2023-03-01T04:10:34;20.60;77.50
45969;DHT22;31676;40.444;-3.668;2023-03-01T04:13:01;20.60;77.50
45969;DHT22;31676;40.444;-3.668;2023-03-01T04:15:27;20.60;77.50
45969;DHT22;31676;40.444;-3.668;2023-03-01T04:17:53;20.60;77.50
45969;DHT22;31676;40.444;-3.668;2023-03-01T04:20:20;20.60;77.50
45969;DHT22;31676;40.444;-3.668;2023-03-01T04:22:51;20.60;77.50
45969;DHT22;31676;40.444;-3.668;2023-03-01T04:25:17;20.60;77.50
45969;DHT22;31676;40.444;-3.668;2023-03-01T04:27:43;20.60;77.50
45969;DHT22;31676;40.444;-3.668;2023-03-01T04:30:09;20.60;77.50
45969;DHT22;31676;40.444;-3.668;2023-03-01T04:32:35;20.60;77.50
45969;DHT22;31676;40.444;-3.668;2023-03-01T04:35:00;20.60;77.50
45969;DHT22;31676;40.444;-3.668;2023-03-01T04:37:26;20.60;77.50
45969;DHT22;31676;40.444;-3.668;2023-03-01T04:39:52;20.60;77.50
45969;DHT22;31676;40.444;-3.668;2023-03-01T04:42:18;20.60;77.50
45969;DHT22;31676;40.444;-3.668;2023-03-01T04:44:44;20.60;77.50
45969;DHT22;31676;40.444;-3.668;2023-03-01T04:47:10;20.60;77.50
45969;DHT22;31676;40.444;-3.668;2023-03-01T04:49:36;20.60;77.50
45969;DHT22;31676;40.444;-3.668;2023-03-01T04:52:02;20.60;77.50
45969;DHT22;31676;40.444;-3.668;2023-03-01T04:54:33;20.60;77.50
45969;DHT22;31676;40.444;-3.668;2023-03-01T04:56:59;20.60;77.50
45969;DHT22;31676;40.444;-3.668;2023-03-01T04:59:25;20.60;77.50
45969;DHT22;31676;40.444;-3.668;2023-03-01T05:01:51;20.60;77.50
45969;DHT22;31676;40.444;-3.668;2023-03-01T05:04:17;20.60;77.50
45969;DHT22;31676;40.444;-3.668;2023-03-01T05:06:43;20.60;77.50
45969;DHT22;31676;40.444;-3.668;2023-03-01T05:09:09;20.60;77.60
45969;DHT22;31676;40.444;-3.668;2023-03-01T05:11:36;20.50;77.50
45969;DHT22;31676;40.444;-3.668;2023-03-01T05:14:02;20.60;77.50
45969;DHT22;31676;40.444;-3.668;2023-03-01T05:16:28;20.50;77.50
45969;DHT22;31676;40.444;-3.668;2023-03-01T05:18:55;20.50;77.50
45969;DHT22;31676;40.444;-3.668;2023-03-01T05:21:22;20.50;77.50
45969;DHT22;31676;40.444;-3.668;2023-03-01T05:23:48;20.50;77.50
45969;DHT22;31676;40.444;-3.668;2023-03-01T05:26:14;20.50;77.50
45969;DHT22;31676;40.444;-3.668;2023-03-01T05:28:40;20.60;77.60
45969;DHT22;31676;40.444;-3.668;2023-03-01T05:31:06;20.50;77.50
45969;DHT22;31676;40.444;-3.668;2023-03-01T05:33:37;20.50;77.50
45969;DHT22;31676;40.444;-3.668;2023-03-01T05:36:04;20.50;77.50
45969;DHT22;31676;40.444;-3.668;2023-03-01T05:38:29;20.50;77.50
45969;DHT22;31676;40.444;-3.668;2023-03-01T05:40:55;20.50;77.50
45969;DHT22;31676;40.444;-3.668;2023-03-01T05:43:21;20.50;77.50
45969;DHT22;31676;40.444;-3.668;2023-03-01T05:45:46;20.50;77.50
45969;DHT22;31676;40.444;-3.668;2023-03-01T05:48:12;20.50;77.50
45969;DHT22;31676;40.444;-3.668;2023-03-01T05:50:40;20.50;77.80
45969;DHT22;31676;40.444;-3.668;2023-03-01T05:53:06;20.50;77.50
45969;DHT22;31676;40.444;-3.668;2023-03-01T05:55:33;20.50;77.50
45969;DHT22;31676;40.444;-3.668;2023-03-01T05:57:59;20.50;77.50
45969;DHT22;31676;40.444;-3.668;2023-03-01T06:00:25;20.50;77.50
45969;DHT22;31676;40.444;-3.668;2023-03-01T06:02:52;20.50;77.50
45969;DHT22;31676;40.444;-3.668;2023-03-01T06:05:18;20.50;77.50
45969;DHT22;31676;40.444;-3.668;2023-03-01T06:07:44;20.50;77.50
45969;DHT22;31676;40.444;-3.668;2023-03-01T06:10:10;20.50;77.50
45969;DHT22;31676;40.444;-3.668;2023-03-01T06:12:36;20.50;77.50
45969;DHT22;31676;40.444;-3.668;2023-03-01T06:15:03;20.50;77.50
45969;DHT22;31676;40.444;-3.668;2023-03-01T06:17:31;20.50;77.50
45969;DHT22;31676;40.444;-3.668;2023-03-01T06:19:57;20.50;77.60
45969;DHT22;31676;40.444;-3.668;2023-03-01T06:22:22;20.50;77.50
45969;DHT22;31676;40.444;-3.668;2023-03-01T06:24:48;20.50;77.60
45969;DHT22;31676;40.444;-3.668;2023-03-01T06:27:14;20.50;77.50
45969;DHT22;31676;40.444;-3.668;2023-03-01T06:29:40;20.50;77.50
45969;DHT22;31676;40.444;-3.668;2023-03-01T06:32:06;20.50;77.60
45969;DHT22;31676;40.444;-3.668;2023-03-01T06:34:31;20.40;77.50
45969;DHT22;31676;40.444;-3.668;2023-03-01T06:36:57;20.50;77.60
45969;DHT22;31676;40.444;-3.668;2023-03-01T06:39:23;20.50;77.60
45969;DHT22;31676;40.444;-3.668;2023-03-01T06:41:48;20.50;77.60
45969;DHT22;31676;40.444;-3.668;2023-03-01T06:44:14;20.40;77.50
45969;DHT22;31676;40.444;-3.668;2023-03-01T06:46:40;20.40;77.60
45969;DHT22;31676;40.444;-3.668;2023-03-01T06:49:06;20.40;77.50
45969;DHT22;31676;40.444;-3.668;2023-03-01T06:51:35;20.40;77.50
45969;DHT22;31676;40.444;-3.668;2023-03-01T06:54:02;20.40;77.60
45969;DHT22;31676;40.444;-3.668;2023-03-01T06:56:28;20.40;77.50
45969;DHT22;31676;40.444;-3.668;2023-03-01T06:58:53;20.40;77.60
45969;DHT22;31676;40.444;-3.668;2023-03-01T07:01:19;20.40;77.50
45969;DHT22;31676;40.444;-3.668;2023-03-01T07:03:45;20.40;77.60
45969;DHT22;31676;40.444;-3.668;2023-03-01T07:06:11;20.40;77.60
45969;DHT22;31676;40.444;-3.668;2023-03-01T07:08:37;20.40;77.60
45969;DHT22;31676;40.444;-3.668;2023-03-01T07:11:02;20.40;77.60
45969;DHT22;31676;40.444;-3.668;2023-03-01T07:13:29;20.40;77.60
45969;DHT22;31676;40.444;-3.668;2023-03-01T07:15:55;20.40;77.60
45969;DHT22;31676;40.444;-3.668;2023-03-01T07:18:20;20.40;77.60
45969;DHT22;31676;40.444;-3.668;2023-03-01T07:20:46;20.40;77.60
45969;DHT22;31676;40.444;-3.668;2023-03-01T07:23:12;20.40;77.60
45969;DHT22;31676;40.444;-3.668;2023-03-01T07:25:37;20.40;77.60
45969;DHT22;31676;40.444;-3.668;2023-03-01T07:28:03;20.40;77.60
45969;DHT22;31676;40.444;-3.668;2023-03-01T07:30:29;20.40;77.60
45969;DHT22;31676;40.444;-3.668;2023-03-01T07:32:55;20.40;77.60
45969;DHT22;31676;40.444;-3.668;2023-03-01T07:35:22;20.40;77.60
45969;DHT22;31676;40.444;-3.668;2023-03-01T07:37:48;20.40;77.60
45969;DHT22;31676;40.444;-3.668;2023-03-01T07:40:13;20.40;77.60
45969;DHT22;31676;40.444;-3.668;2023-03-01T07:42:39;20.40;77.60
45969;DHT22;31676;40.444;-3.668;2023-03-01T07:45:05;20.40;77.60
45969;DHT22;31676;40.444;-3.668;2023-03-01T07:47:31;20.40;77.60
45969;DHT22;31676;40.444;-3.668;2023-03-01T07:49:57;20.40;77.60
45969;DHT22;31676;40.444;-3.668;2023-03-01T07:52:23;20.40;77.60
45969;DHT22;31676;40.444;-3.668;2023-03-01T07:54:48;20.40;77.60
45969;DHT22;31676;40.444;-3.668;2023-03-01T07:57:14;20.40;77.60
45969;DHT22;31676;40.444;-3.668;2023-03-01T07:59:40;20.40;77.60
45969;DHT22;31676;40.444;-3.668;2023-03-01T08:02:05;20.40;77.60
45969;DHT22;31676;40.444;-3.668;2023-03-01T08:04:32;20.40;77.60
45969;DHT22;31676;40.444;-3.668;2023-03-01T08:06:58;20.40;77.60
45969;DHT22;31676;40.444;-3.668;2023-03-01T08:09:24;20.40;77.60
45969;DHT22;31676;40.444;-3.668;2023-03-01T08:11:50;20.40;77.60
45969;DHT22;31676;40.444;-3.668;2023-03-01T08:14:16;20.40;77.60
45969;DHT22;31676;40.444;-3.668;2023-03-01T08:16:41;20.40;77.60
45969;DHT22;31676;40.444;-3.668;2023-03-01T08:19:11;20.40;77.60
45969;DHT22;31676;40.444;-3.668;2023-03-01T08:21:37;20.40;77.60
45969;DHT22;31676;40.444;-3.668;2023-03-01T08:24:04;20.40;77.60
45969;DHT22;31676;40.444;-3.668;2023-03-01T08:26:30;20.40;77.60
45969;DHT22;31676;40.444;-3.668;2023-03-01T08:28:55;20.40;77.60
45969;DHT22;31676;40.444;-3.668;2023-03-01T08:33:51;20.40;77.60
45969;DHT22;31676;40.444;-3.668;2023-03-01T08:36:20;20.40;77.60
45969;DHT22;31676;40.444;-3.668;2023-03-01T08:38:46;20.40;77.60
45969;DHT22;31676;40.444;-3.668;2023-03-01T08:41:12;20.40;77.60
45969;DHT22;31676;40.444;-3.668;2023-03-01T08:43:38;20.40;77.60
45969;DHT22;31676;40.444;-3.668;2023-03-01T08:46:04;20.40;77.60
45969;DHT22;31676;40.444;-3.668;2023-03-01T08:48:29;20.40;77.50
45969;DHT22;31676;40.444;-3.668;2023-03-01T08:50:55;20.40;77.50
45969;DHT22;31676;40.444;-3.668;2023-03-01T08:53:21;20.40;77.50
45969;DHT22;31676;40.444;-3.668;2023-03-01T08:55:46;20.40;77.50
45969;DHT22;31676;40.444;-3.668;2023-03-01T08:58:12;20.40;77.50
45969;DHT22;31676;40.444;-3.668;2023-03-01T09:00:38;20.40;77.50
45969;DHT22;31676;40.444;-3.668;2023-03-01T09:03:04;20.40;77.50
45969;DHT22;31676;40.444;-3.668;2023-03-01T09:05:33;20.40;77.50
45969;DHT22;31676;40.444;-3.668;2023-03-01T09:07:59;20.40;77.50
45969;DHT22;31676;40.444;-3.668;2023-03-01T09:10:25;20.40;77.50
45969;DHT22;31676;40.444;-3.668;2023-03-01T09:12:51;20.40;77.50
45969;DHT22;31676;40.444;-3.668;2023-03-01T09:15:16;20.40;77.50
45969;DHT22;31676;40.444;-3.668;2023-03-01T09:17:42;20.40;77.50
45969;DHT22;31676;40.444;-3.668;2023-03-01T09:20:08;20.40;77.50
45969;DHT22;31676;40.444;-3.668;2023-03-01T09:22:34;20.40;77.50
45969;DHT22;31676;40.444;-3.668;2023-03-01T09:25:00;20.40;77.50
45969;DHT22;31676;40.444;-3.668;2023-03-01T09:27:26;20.40;77.40
45969;DHT22;31676;40.444;-3.668;2023-03-01T09:29:51;20.40;78.10
45969;DHT22;31676;40.444;-3.668;2023-03-01T09:32:17;20.40;77.40
45969;DHT22;31676;40.444;-3.668;2023-03-01T09:34:43;20.40;77.40
45969;DHT22;31676;40.444;-3.668;2023-03-01T09:37:29;20.40;77.40
45969;DHT22;31676;40.444;-3.668;2023-03-01T09:39:55;20.40;77.40
45969;DHT22;31676;40.444;-3.668;2023-03-01T09:42:20;20.40;77.40
45969;DHT22;31676;40.444;-3.668;2023-03-01T09:44:51;20.40;77.40
45969;DHT22;31676;40.444;-3.668;2023-03-01T09:49:43;20.40;77.40
45969;DHT22;31676;40.444;-3.668;2023-03-01T09:54:44;20.50;77.40
45969;DHT22;31676;40.444;-3.668;2023-03-01T09:57:30;20.50;77.40
45969;DHT22;31676;40.444;-3.668;2023-03-01T10:02:57;20.50;77.30
45969;DHT22;31676;40.444;-3.668;2023-03-01T10:06:14;20.50;77.30
45969;DHT22;31676;40.444;-3.668;2023-03-01T10:11:01;20.50;77.30
45969;DHT22;31676;40.444;-3.668;2023-03-01T10:14:13;20.50;77.30
45969;DHT22;31676;40.444;-3.668;2023-03-01T10:16:21;20.50;77.30
45969;DHT22;31676;40.444;-3.668;2023-03-01T10:18:51;20.50;77.30
45969;DHT22;31676;40.444;-3.668;2023-03-01T10:21:19;20.50;77.30
45969;DHT22;31676;40.444;-3.668;2023-03-01T10:23:45;20.50;77.30
45969;DHT22;31676;40.444;-3.668;2023-03-01T10:31:25;20.50;77.30
45969;DHT22;31676;40.444;-3.668;2023-03-01T10:33:54;20.50;77.30
45969;DHT22;31676;40.444;-3.668;2023-03-01T10:36:24;20.50;77.30
45969;DHT22;31676;40.444;-3.668;2023-03-01T10:38:54;20.50;77.30
45969;DHT22;31676;40.444;-3.668;2023-03-01T10:41:20;20.50;77.30
45969;DHT22;31676;40.444;-3.668;2023-03-01T10:46:24;20.60;77.30
45969;DHT22;31676;40.444;-3.668;2023-03-01T10:51:31;20.60;77.30
45969;DHT22;31676;40.444;-3.668;2023-03-01T10:53:57;20.60;77.30
45969;DHT22;31676;40.444;-3.668;2023-03-01T10:56:23;20.60;77.30
45969;DHT22;31676;40.444;-3.668;2023-03-01T11:03:55;20.60;77.30
45969;DHT22;31676;40.444;-3.668;2023-03-01T11:06:28;20.60;77.30
45969;DHT22;31676;40.444;-3.668;2023-03-01T11:08:53;20.60;77.30
45969;DHT22;31676;40.444;-3.668;2023-03-01T11:11:23;20.60;77.30
45969;DHT22;31676;40.444;-3.668;2023-03-01T11:14:03;20.60;77.30
45969;DHT22;31676;40.444;-3.668;2023-03-01T11:16:34;20.60;77.30
45969;DHT22;31676;40.444;-3.668;2023-03-01T11:19:04;20.60;77.30
45969;DHT22;31676;40.444;-3.668;2023-03-01T11:21:30;20.60;77.20
45969;DHT22;31676;40.444;-3.668;2023-03-01T11:23:57;20.60;77.20
45969;DHT22;31676;40.444;-3.668;2023-03-01T11:26:25;20.60;77.30
45969;DHT22;31676;40.444;-3.668;2023-03-01T11:28:51;20.60;77.20
45969;DHT22;31676;40.444;-3.668;2023-03-01T11:31:19;20.60;77.20
45969;DHT22;31676;40.444;-3.668;2023-03-01T11:36:24;20.60;77.20
45969;DHT22;31676;40.444;-3.668;2023-03-01T11:38:52;20.70;77.30
45969;DHT22;31676;40.444;-3.668;2023-03-01T11:41:36;20.70;77.30
45969;DHT22;31676;40.444;-3.668;2023-03-01T11:49:12;20.70;77.30
45969;DHT22;31676;40.444;-3.668;2023-03-01T11:51:46;20.70;77.20
45969;DHT22;31676;40.444;-3.668;2023-03-01T11:54:18;20.70;77.20
45969;DHT22;31676;40.444;-3.668;2023-03-01T11:56:47;20.70;77.20
45969;DHT22;31676;40.444;-3.668;2023-03-01T12:10:43;20.80;77.20
45969;DHT22;31676;40.444;-3.668;2023-03-01T12:20:29;20.80;77.20
45969;DHT22;31676;40.444;-3.668;2023-03-01T12:25:28;20.80;77.20
45969;DHT22;31676;40.444;-3.668;2023-03-01T12:38:32;20.80;77.10
45969;DHT22;31676;40.444;-3.668;2023-03-01T12:46:25;20.90;77.20
45969;DHT22;31676;40.444;-3.668;2023-03-01T12:49:08;20.90;77.10
45969;DHT22;31676;40.444;-3.668;2023-03-01T12:51:36;20.90;77.10
45969;DHT22;31676;40.444;-3.668;2023-03-01T12:54:15;20.90;77.20
45969;DHT22;31676;40.444;-3.668;2023-03-01T12:56:41;20.90;77.10
45969;DHT22;31676;40.444;-3.668;2023-03-01T13:11:56;21.00;77.10
45969;DHT22;31676;40.444;-3.668;2023-03-01T13:16:51;21.00;77.10
45969;DHT22;31676;40.444;-3.668;2023-03-01T13:19:27;21.00;77.10
45969;DHT22;31676;40.444;-3.668;2023-03-01T13:22:01;21.00;77.10
45969;DHT22;31676;40.444;-3.668;2023-03-01T13:24:47;21.00;77.10
45969;DHT22;31676;40.444;-3.668;2023-03-01T13:27:22;21.00;77.00
45969;DHT22;31676;40.444;-3.668;2023-03-01T13:29:51;21.00;77.10
45969;DHT22;31676;40.444;-3.668;2023-03-01T13:32:29;21.00;77.00
45969;DHT22;31676;40.444;-3.668;2023-03-01T13:35:01;21.00;77.00
45969;DHT22;31676;40.444;-3.668;2023-03-01T13:37:36;21.10;77.10
45969;DHT22;31676;40.444;-3.668;2023-03-01T13:40:56;21.00;77.00
45969;DHT22;31676;40.444;-3.668;2023-03-01T13:42:49;21.10;77.70
45969;DHT22;31676;40.444;-3.668;2023-03-01T13:45:24;21.10;77.10
45969;DHT22;31676;40.444;-3.668;2023-03-01T13:48:02;21.00;77.00
45969;DHT22;31676;40.444;-3.668;2023-03-01T13:50:33;21.10;77.10
45969;DHT22;31676;40.444;-3.668;2023-03-01T13:53:00;21.10;77.00
45969;DHT22;31676;40.444;-3.668;2023-03-01T13:55:30;21.10;77.00
45969;DHT22;31676;40.444;-3.668;2023-03-01T13:57:58;21.10;77.10
45969;DHT22;31676;40.444;-3.668;2023-03-01T14:03:03;21.10;77.00
45969;DHT22;31676;40.444;-3.668;2023-03-01T14:05:29;21.10;77.00
45969;DHT22;31676;40.444;-3.668;2023-03-01T14:07:57;21.10;77.00
45969;DHT22;31676;40.444;-3.668;2023-03-01T14:10:25;21.10;77.00
45969;DHT22;31676;40.444;-3.668;2023-03-01T14:16:03;21.10;77.00
45969;DHT22;31676;40.444;-3.668;2023-03-01T14:18:47;21.10;77.00
45969;DHT22;31676;40.444;-3.668;2023-03-01T14:21:17;21.10;77.00
45969;DHT22;31676;40.444;-3.668;2023-03-01T14:23:43;21.20;77.00
45969;DHT22;31676;40.444;-3.668;2023-03-01T14:26:09;21.10;77.00
45969;DHT22;31676;40.444;-3.668;2023-03-01T14:28:37;21.20;77.00
45969;DHT22;31676;40.444;-3.668;2023-03-01T14:31:29;21.20;77.00
45969;DHT22;31676;40.444;-3.668;2023-03-01T14:33:56;21.20;77.70
45969;DHT22;31676;40.444;-3.668;2023-03-01T14:36:26;21.20;77.00
45969;DHT22;31676;40.444;-3.668;2023-03-01T14:38:52;21.20;77.00
45969;DHT22;31676;40.444;-3.668;2023-03-01T14:41:23;21.20;77.00
45969;DHT22;31676;40.444;-3.668;2023-03-01T14:43:57;21.20;77.00
45969;DHT22;31676;40.444;-3.668;2023-03-01T14:46:28;21.20;77.00
45969;DHT22;31676;40.444;-3.668;2023-03-01T14:49:41;21.20;77.00
45969;DHT22;31676;40.444;-3.668;2023-03-01T14:51:42;21.20;77.00
45969;DHT22;31676;40.444;-3.668;2023-03-01T14:54:27;21.20;77.00
45969;DHT22;31676;40.444;-3.668;2023-03-01T14:56:54;21.20;77.00
45969;DHT22;31676;40.444;-3.668;2023-03-01T14:59:23;21.20;77.00
45969;DHT22;31676;40.444;-3.668;2023-03-01T15:01:49;21.20;77.00
45969;DHT22;31676;40.444;-3.668;2023-03-01T15:04:16;21.20;76.90
45969;DHT22;31676;40.444;-3.668;2023-03-01T15:06:42;21.30;77.00
45969;DHT22;31676;40.444;-3.668;2023-03-01T15:09:11;21.30;77.00
45969;DHT22;31676;40.444;-3.668;2023-03-01T15:11:39;21.30;77.00
45969;DHT22;31676;40.444;-3.668;2023-03-01T15:14:27;21.20;77.00
45969;DHT22;31676;40.444;-3.668;2023-03-01T15:16:54;21.30;77.00
45969;DHT22;31676;40.444;-3.668;2023-03-01T15:19:20;21.30;77.00
45969;DHT22;31676;40.444;-3.668;2023-03-01T15:21:48;21.30;77.00
45969;DHT22;31676;40.444;-3.668;2023-03-01T15:24:19;21.30;77.00
45969;DHT22;31676;40.444;-3.668;2023-03-01T15:26:49;21.30;77.00
45969;DHT22;31676;40.444;-3.668;2023-03-01T15:29:20;21.30;77.00
45969;DHT22;31676;40.444;-3.668;2023-03-01T15:31:57;21.30;77.00
45969;DHT22;31676;40.444;-3.668;2023-03-01T15:34:24;21.30;77.00
45969;DHT22;31676;40.444;-3.668;2023-03-01T15:36:51;21.30;77.00
45969;DHT22;31676;40.444;-3.668;2023-03-01T15:39:25;21.30;76.90
45969;DHT22;31676;40.444;-3.668;2023-03-01T15:41:52;21.30;77.00
45969;DHT22;31676;40.444;-3.668;2023-03-01T15:44:28;21.30;77.00
45969;DHT22;31676;40.444;-3.668;2023-03-01T15:46:54;21.30;77.00
45969;DHT22;31676;40.444;-3.668;2023-03-01T15:49:25;21.30;77.00
45969;DHT22;31676;40.444;-3.668;2023-03-01T15:51:53;21.30;77.00
45969;DHT22;31676;40.444;-3.668;2023-03-01T15:54:21;21.30;77.00
45969;DHT22;31676;40.444;-3.668;2023-03-01T15:56:47;21.30;77.00
45969;DHT22;31676;40.444;-3.668;2023-03-01T15:59:13;21.30;77.00
45969;DHT22;31676;40.444;-3.668;2023-03-01T16:01:40;21.30;77.00
45969;DHT22;31676;40.444;-3.668;2023-03-01T16:04:05;21.30;77.10
45969;DHT22;31676;40.444;-3.668;2023-03-01T16:06:31;21.30;77.00
45969;DHT22;31676;40.444;-3.668;2023-03-01T16:08:57;21.30;77.00
45969;DHT22;31676;40.444;-3.668;2023-03-01T16:11:22;21.30;77.00
45969;DHT22;31676;40.444;-3.668;2023-03-01T16:13:48;21.30;77.00
45969;DHT22;31676;40.444;-3.668;2023-03-01T16:16:15;21.30;77.10
45969;DHT22;31676;40.444;-3.668;2023-03-01T16:18:42;21.30;77.00
45969;DHT22;31676;40.444;-3.668;2023-03-01T16:21:10;21.30;77.00
45969;DHT22;31676;40.444;-3.668;2023-03-01T16:23:37;21.30;77.00
45969;DHT22;31676;40.444;-3.668;2023-03-01T16:26:02;21.30;77.00
45969;DHT22;31676;40.444;-3.668;2023-03-01T16:28:28;21.30;77.00
45969;DHT22;31676;40.444;-3.668;2023-03-01T16:30:54;21.30;77.10
45969;DHT22;31676;40.444;-3.668;2023-03-01T16:33:19;21.30;77.00
45969;DHT22;31676;40.444;-3.668;2023-03-01T16:35:45;21.30;77.10
45969;DHT22;31676;40.444;-3.668;2023-03-01T16:38:11;21.30;77.10
45969;DHT22;31676;40.444;-3.668;2023-03-01T16:40:36;21.30;77.10
45969;DHT22;31676;40.444;-3.668;2023-03-01T16:43:02;21.30;77.10
45969;DHT22;31676;40.444;-3.668;2023-03-01T16:45:32;21.30;77.10
45969;DHT22;31676;40.444;-3.668;2023-03-01T16:47:59;21.30;77.10
45969;DHT22;31676;40.444;-3.668;2023-03-01T16:50:25;21.30;77.10
45969;DHT22;31676;40.444;-3.668;2023-03-01T16:52:51;21.30;77.10
45969;DHT22;31676;40.444;-3.668;2023-03-01T16:55:16;21.30;77.10
45969;DHT22;31676;40.444;-3.668;2023-03-01T16:57:42;21.30;77.10
45969;DHT22;31676;40.444;-3.668;2023-03-01T17:00:08;21.30;77.10
45969;DHT22;31676;40.444;-3.668;2023-03-01T17:02:38;21.30;77.10
45969;DHT22;31676;40.444;-3.668;2023-03-01T17:05:04;21.30;77.10